sensor_id;sensor_type;location;lat;lon;timestamp;pressure;altitude;pressure_sealevel;temperature;humidity
48872;BME280;36154;51.674;7.824;2023-04-01T00:01:02;98569.59;;;20.39;51.91
48872;BME280;36154;51.674;7.824;2023-04-01T00:03:28;98567.91;;;20.38;51.89
48872;BME280;36154;51.674;7.824;2023-04-01T00:05:55;98574.75;;;20.39;51.89
48872;BME280;36154;51.674;7.824;2023-04-01T00:08:21;98569.59;;;20.39;51.87
48872;BME280;36154;51.674;7.824;2023-04-01T00:10:46;98571.22;;;20.40;51.75
48872;BME280;36154;51.674;7.824;2023-04-01T00:13:12;98574.75;;;20.39;51.79
48872;BME280;36154;51.674;7.824;2023-04-01T00:15:38;98573.09;;;20.38;51.84
48872;BME280;36154;51.674;7.824;2023-04-01T00:18:03;98576.50;;;20.38;51.88
48872;BME280;36154;51.674;7.824;2023-04-01T00:20:29;98573.09;;;20.38;51.79
48872;BME280;36154;51.674;7.824;2023-04-01T00:22:55;98581.56;;;20.40;51.78
48872;BME280;36154;51.674;7.824;2023-04-01T00:25:21;98570.50;;;20.38;51.74
48872;BME280;36154;51.674;7.824;2023-04-01T00:27:46;98568.75;;;20.38;51.66
48872;BME280;36154;51.674;7.824;2023-04-01T00:30:12;98569.59;;;20.39;51.59
48872;BME280;36154;51.674;7.824;2023-04-01T00:32:37;98566.47;;;20.34;51.78
48872;BME280;36154;51.674;7.824;2023-04-01T00:35:03;98573.91;;;20.38;51.68
48872;BME280;36154;51.674;7.824;2023-04-01T00:37:30;98566.28;;;20.37;51.60
48872;BME280;36154;51.674;7.824;2023-04-01T00:39:55;98570.50;;;20.38;51.60
48872;BME280;36154;51.674;7.824;2023-04-01T00:42:22;98574.03;;;20.37;51.63
48872;BME280;36154;51.674;7.824;2023-04-01T00:44:54;98567.09;;;20.37;51.61
48872;BME280;36154;51.674;7.824;2023-04-01T00:47:20;98575.69;;;20.38;51.67
48872;BME280;36154;51.674;7.824;2023-04-01T00:49:48;98569.69;;;20.37;51.54
48872;BME280;36154;51.674;7.824;2023-04-01T00:52:18;98570.50;;;20.38;51.52
48872;BME280;36154;51.674;7.824;2023-04-01T00:54:46;98573.09;;;20.38;51.53
48872;BME280;36154;51.674;7.824;2023-04-01T00:57:28;98559.44;;;20.36;51.60
48872;BME280;36154;51.674;7.824;2023-04-01T00:59:55;98568.00;;;20.36;51.56
48872;BME280;36154;51.674;7.824;2023-04-01T01:02:21;98561.94;;;20.37;51.50
48872;BME280;36154;51.674;7.824;2023-04-01T01:04:46;98564.59;;;20.36;51.66
48872;BME280;36154;51.674;7.824;2023-04-01T01:07:36;98559.44;;;20.36;51.60
48872;BME280;36154;51.674;7.824;2023-04-01T01:10:17;98562.00;;;20.36;51.64
48872;BME280;36154;51.674;7.824;2023-04-01T01:13:02;98557.75;;;20.35;51.47
48872;BME280;36154;51.674;7.824;2023-04-01T01:18:04;98565.50;;;20.35;51.60
48872;BME280;36154;51.674;7.824;2023-04-01T01:21:14;98555.25;;;20.33;51.68
48872;BME280;36154;51.674;7.824;2023-04-01T01:23:51;98555.25;;;20.33;51.65
48872;BME280;36154;51.674;7.824;2023-04-01T01:32:44;98550.19;;;20.31;51.66
48872;BME280;36154;51.674;7.824;2023-04-01T01:37:15;98549.28;;;20.33;51.57
48872;BME280;36154;51.674;7.824;2023-04-01T01:39:43;98550.19;;;20.31;51.66
48872;BME280;36154;51.674;7.824;2023-04-01T01:42:11;98542.44;;;20.31;51.48
48872;BME280;36154;51.674;7.824;2023-04-01T01:44:39;98548.44;;;20.32;51.80
48872;BME280;36154;51.674;7.824;2023-04-01T01:47:07;98538.09;;;20.32;51.56
48872;BME280;36154;51.674;7.824;2023-04-01T01:49:33;98538.09;;;20.32;51.38
48872;BME280;36154;51.674;7.824;2023-04-01T01:52:00;98546.69;;;20.33;51.50
48872;BME280;36154;51.674;7.824;2023-04-01T01:54:26;98542.44;;;20.31;51.58
48872;BME280;36154;51.674;7.824;2023-04-01T01:57:02;98547.59;;;20.31;51.50
48872;BME280;36154;51.674;7.824;2023-04-01T01:59:30;98541.50;;;20.33;51.47
48872;BME280;36154;51.674;7.824;2023-04-01T02:01:58;98532.09;;;20.31;51.52
48872;BME280;36154;51.674;7.824;2023-04-01T02:04:25;98542.44;;;20.31;51.39
48872;BME280;36154;51.674;7.824;2023-04-01T02:07:07;98548.44;;;20.32;51.52
48872;BME280;36154;51.674;7.824;2023-04-01T02:09:34;98550.19;;;20.31;51.44
48872;BME280;36154;51.674;7.824;2023-04-01T02:12:03;98552.78;;;20.31;51.61
48872;BME280;36154;51.674;7.824;2023-04-01T02:17:13;98545.97;;;20.30;51.45
48872;BME280;36154;51.674;7.824;2023-04-01T02:19:48;98549.38;;;20.31;51.50
48872;BME280;36154;51.674;7.824;2023-04-01T02:22:18;98550.19;;;20.31;51.38
48872;BME280;36154;51.674;7.824;2023-04-01T02:24:45;98551.94;;;20.31;51.33
48872;BME280;36154;51.674;7.824;2023-04-01T02:27:11;98547.59;;;20.31;51.50
48872;BME280;36154;51.674;7.824;2023-04-01T02:29:37;98555.34;;;20.31;51.62
48872;BME280;36154;51.674;7.824;2023-04-01T02:32:03;98550.31;;;20.30;51.35
48872;BME280;36154;51.674;7.824;2023-04-01T02:34:29;98557.94;;;20.31;51.48
48872;BME280;36154;51.674;7.824;2023-04-01T02:36:55;98541.59;;;20.31;51.37
48872;BME280;36154;51.674;7.824;2023-04-01T02:39:20;98556.28;;;20.30;51.47
48872;BME280;36154;51.674;7.824;2023-04-01T02:41:46;98556.28;;;20.30;51.64
48872;BME280;36154;51.674;7.824;2023-04-01T02:44:14;98545.97;;;20.30;51.36
48872;BME280;36154;51.674;7.824;2023-04-01T02:46:39;98560.66;;;20.30;51.48
48872;BME280;36154;51.674;7.824;2023-04-01T02:49:05;98561.47;;;20.30;51.42
48872;BME280;36154;51.674;7.824;2023-04-01T02:51:31;98552.03;;;20.29;51.48
48872;BME280;36154;51.674;7.824;2023-04-01T02:53:56;98545.13;;;20.30;51.36
48872;BME280;36154;51.674;7.824;2023-04-01T02:56:21;98548.53;;;20.30;51.33
48872;BME280;36154;51.674;7.824;2023-04-01T02:58:47;98549.44;;;20.29;51.55
48872;BME280;36154;51.674;7.824;2023-04-01T03:01:12;98549.44;;;20.29;51.50
48872;BME280;36154;51.674;7.824;2023-04-01T03:03:38;98550.31;;;20.30;51.49
48872;BME280;36154;51.674;7.824;2023-04-01T03:06:09;98546.03;;;20.29;51.42
48872;BME280;36154;51.674;7.824;2023-04-01T03:08:35;98549.44;;;20.29;51.38
48872;BME280;36154;51.674;7.824;2023-04-01T03:11:00;98547.72;;;20.30;51.29
48872;BME280;36154;51.674;7.824;2023-04-01T03:13:26;98546.88;;;20.29;51.33
48872;BME280;36154;51.674;7.824;2023-04-01T03:15:51;98543.47;;;20.29;51.38
48872;BME280;36154;51.674;7.824;2023-04-01T03:18:16;98541.69;;;20.29;51.46
48872;BME280;36154;51.674;7.824;2023-04-01T03:20:42;98536.53;;;20.29;51.43
48872;BME280;36154;51.674;7.824;2023-04-01T03:23:08;98545.22;;;20.28;51.32
48872;BME280;36154;51.674;7.824;2023-04-01T03:25:33;98540.97;;;20.27;51.27
48872;BME280;36154;51.674;7.824;2023-04-01T03:27:58;98545.22;;;20.28;51.43
48872;BME280;36154;51.674;7.824;2023-04-01T03:30:25;98533.13;;;20.29;51.36
48872;BME280;36154;51.674;7.824;2023-04-01T03:32:50;98542.63;;;20.28;51.37
48872;BME280;36154;51.674;7.824;2023-04-01T03:35:16;98540.97;;;20.27;51.32
48872;BME280;36154;51.674;7.824;2023-04-01T03:37:41;98542.63;;;20.28;51.43
48872;BME280;36154;51.674;7.824;2023-04-01T03:40:07;98545.22;;;20.28;51.32
48872;BME280;36154;51.674;7.824;2023-04-01T03:42:33;98557.31;;;20.28;51.38
48872;BME280;36154;51.674;7.824;2023-04-01T03:44:58;98552.97;;;20.28;51.35
48872;BME280;36154;51.674;7.824;2023-04-01T03:47:23;98557.41;;;20.26;51.36
48872;BME280;36154;51.674;7.824;2023-04-01T03:49:48;98551.31;;;20.27;51.38
48872;BME280;36154;51.674;7.824;2023-04-01T03:52:14;98548.00;;;20.25;51.24
48872;BME280;36154;51.674;7.824;2023-04-01T03:54:40;98563.31;;;20.28;51.20
48872;BME280;36154;51.674;7.824;2023-04-01T03:57:05;98566.81;;;20.27;51.32
48872;BME280;36154;51.674;7.824;2023-04-01T03:59:30;98572.00;;;20.27;51.28
48872;BME280;36154;51.674;7.824;2023-04-01T04:01:56;98577.97;;;20.28;51.36
48872;BME280;36154;51.674;7.824;2023-04-01T04:04:21;98571.16;;;20.27;51.24
48872;BME280;36154;51.674;7.824;2023-04-01T04:06:46;98578.06;;;20.26;51.23
48872;BME280;36154;51.674;7.824;2023-04-01T04:09:12;98577.16;;;20.27;51.34
48872;BME280;36154;51.674;7.824;2023-04-01T04:11:37;98576.34;;;20.27;50.98
48872;BME280;36154;51.674;7.824;2023-04-01T04:14:02;98572.19;;;20.24;51.34
48872;BME280;36154;51.674;7.824;2023-04-01T04:16:28;98585.84;;;20.26;51.12
48872;BME280;36154;51.674;7.824;2023-04-01T04:18:53;98578.16;;;20.25;51.16
48872;BME280;36154;51.674;7.824;2023-04-01T04:21:18;98579.03;;;20.25;51.22
48872;BME280;36154;51.674;7.824;2023-04-01T04:23:44;98582.44;;;20.26;51.22
48872;BME280;36154;51.674;7.824;2023-04-01T04:26:11;98578.16;;;20.25;51.11
48872;BME280;36154;51.674;7.824;2023-04-01T04:28:37;98579.84;;;20.26;51.32
48872;BME280;36154;51.674;7.824;2023-04-01T04:31:03;98584.19;;;20.25;51.21
48872;BME280;36154;51.674;7.824;2023-04-01T04:33:30;98588.50;;;20.25;51.36
48872;BME280;36154;51.674;7.824;2023-04-01T04:35:57;98587.59;;;20.26;51.30
48872;BME280;36154;51.674;7.824;2023-04-01T04:38:23;98589.38;;;20.25;51.26
48872;BME280;36154;51.674;7.824;2023-04-01T04:40:48;98586.78;;;20.25;51.25
48872;BME280;36154;51.674;7.824;2023-04-01T04:43:15;98587.69;;;20.24;51.37
48872;BME280;36154;51.674;7.824;2023-04-01T04:45:41;98589.38;;;20.25;51.23
48872;BME280;36154;51.674;7.824;2023-04-01T04:48:11;98586.03;;;20.23;51.32
48872;BME280;36154;51.674;7.824;2023-04-01T04:50:41;98591.22;;;20.23;51.32
48872;BME280;36154;51.674;7.824;2023-04-01T04:53:08;98587.69;;;20.24;51.32
48872;BME280;36154;51.674;7.824;2023-04-01T04:55:34;98587.69;;;20.24;51.11
48872;BME280;36154;51.674;7.824;2023-04-01T04:57:59;98584.38;;;20.22;51.23
48872;BME280;36154;51.674;7.824;2023-04-01T05:00:24;98590.28;;;20.24;51.18
48872;BME280;36154;51.674;7.824;2023-04-01T05:02:50;98598.03;;;20.24;51.21
48872;BME280;36154;51.674;7.824;2023-04-01T05:05:15;98589.53;;;20.22;51.10
48872;BME280;36154;51.674;7.824;2023-04-01T05:07:41;98596.38;;;20.23;51.13
48872;BME280;36154;51.674;7.824;2023-04-01T05:10:06;98597.22;;;20.24;51.20
48872;BME280;36154;51.674;7.824;2023-04-01T05:12:31;98598.03;;;20.24;51.02
48872;BME280;36154;51.674;7.824;2023-04-01T05:15:02;98594.72;;;20.22;51.18
48872;BME280;36154;51.674;7.824;2023-04-01T05:17:27;98598.03;;;20.24;51.03
48872;BME280;36154;51.674;7.824;2023-04-01T05:19:55;98599.78;;;20.24;51.15
48872;BME280;36154;51.674;7.824;2023-04-01T05:22:20;98608.38;;;20.24;51.14
48872;BME280;36154;51.674;7.824;2023-04-01T05:24:45;98602.47;;;20.22;51.02
48872;BME280;36154;51.674;7.824;2023-04-01T05:27:11;98599.88;;;20.22;51.06
48872;BME280;36154;51.674;7.824;2023-04-01T05:29:36;98594.72;;;20.22;51.06
48872;BME280;36154;51.674;7.824;2023-04-01T05:32:01;98597.28;;;20.22;51.05
48872;BME280;36154;51.674;7.824;2023-04-01T05:34:26;98603.38;;;20.21;51.06
48872;BME280;36154;51.674;7.824;2023-04-01T05:36:52;98606.72;;;20.23;51.07
48872;BME280;36154;51.674;7.824;2023-04-01T05:39:17;98605.06;;;20.22;51.25
48872;BME280;36154;51.674;7.824;2023-04-01T05:41:43;98603.38;;;20.21;51.12
48872;BME280;36154;51.674;7.824;2023-04-01T05:44:11;98603.38;;;20.21;50.98
48872;BME280;36154;51.674;7.824;2023-04-01T05:46:37;98608.56;;;20.21;51.13
48872;BME280;36154;51.674;7.824;2023-04-01T05:49:02;98618.91;;;20.21;51.05
48872;BME280;36154;51.674;7.824;2023-04-01T05:51:27;98617.25;;;20.20;50.95
48872;BME280;36154;51.674;7.824;2023-04-01T05:53:52;98613.72;;;20.21;51.07
48872;BME280;36154;51.674;7.824;2023-04-01T05:56:18;98619.06;;;20.18;51.21
48872;BME280;36154;51.674;7.824;2023-04-01T05:58:46;98613.72;;;20.21;51.17
48872;BME280;36154;51.674;7.824;2023-04-01T06:01:15;98618.06;;;20.21;51.07
48872;BME280;36154;51.674;7.824;2023-04-01T06:03:40;98618.91;;;20.21;50.98
48872;BME280;36154;51.674;7.824;2023-04-01T06:06:13;98625.00;;;20.20;51.00
48872;BME280;36154;51.674;7.824;2023-04-01T06:08:39;98625.81;;;20.21;51.03
48872;BME280;36154;51.674;7.824;2023-04-01T06:11:29;98627.59;;;20.20;50.92
48872;BME280;36154;51.674;7.824;2023-04-01T06:14:13;98634.41;;;20.21;50.99
48872;BME280;36154;51.674;7.824;2023-04-01T06:17:13;98631.91;;;20.20;50.96
48872;BME280;36154;51.674;7.824;2023-04-01T06:25:28;98636.25;;;20.19;51.03
48872;BME280;36154;51.674;7.824;2023-04-01T06:40:22;98649.19;;;20.19;51.45
48872;BME280;36154;51.674;7.824;2023-04-01T06:45:20;98646.59;;;20.19;51.18
48872;BME280;36154;51.674;7.824;2023-04-01T06:50:40;98653.44;;;20.20;51.33
48872;BME280;36154;51.674;7.824;2023-04-01T06:53:24;98649.91;;;20.21;51.29
48872;BME280;36154;51.674;7.824;2023-04-01T06:55:55;98644.75;;;20.21;51.42
48872;BME280;36154;51.674;7.824;2023-04-01T06:58:25;98646.44;;;20.22;51.46
48872;BME280;36154;51.674;7.824;2023-04-01T07:00:56;98654.09;;;20.24;51.45
48872;BME280;36154;51.674;7.824;2023-04-01T07:03:41;98660.91;;;20.25;51.37
48872;BME280;36154;51.674;7.824;2023-04-01T07:06:33;98659.19;;;20.25;51.30
48872;BME280;36154;51.674;7.824;2023-04-01T07:09:05;98660.91;;;20.25;51.36
48872;BME280;36154;51.674;7.824;2023-04-01T07:11:34;98660.91;;;20.25;51.44
48872;BME280;36154;51.674;7.824;2023-04-01T07:14:27;98666.06;;;20.25;51.24
48872;BME280;36154;51.674;7.824;2023-04-01T07:19:36;98666.94;;;20.25;51.46
48872;BME280;36154;51.674;7.824;2023-04-01T07:24:49;98669.50;;;20.25;51.36
48872;BME280;36154;51.674;7.824;2023-04-01T07:27:16;98672.09;;;20.25;51.36
48872;BME280;36154;51.674;7.824;2023-04-01T07:29:41;98678.91;;;20.26;51.07
48872;BME280;36154;51.674;7.824;2023-04-01T07:41:04;98678.09;;;20.26;51.26
48872;BME280;36154;51.674;7.824;2023-04-01T07:43:45;98679.84;;;20.25;51.14
48872;BME280;36154;51.674;7.824;2023-04-01T07:46:38;98692.78;;;20.25;51.10
48872;BME280;36154;51.674;7.824;2023-04-01T07:59:45;98701.47;;;20.24;51.14
48872;BME280;36154;51.674;7.824;2023-04-01T08:02:25;98696.28;;;20.24;51.02
48872;BME280;36154;51.674;7.824;2023-04-01T08:10:56;98705.81;;;20.24;51.16
48872;BME280;36154;51.674;7.824;2023-04-01T08:13:34;98714.28;;;20.26;51.03
48872;BME280;36154;51.674;7.824;2023-04-01T08:16:19;98709.22;;;20.24;50.89
48872;BME280;36154;51.674;7.824;2023-04-01T08:21:54;98712.63;;;20.25;51.11
48872;BME280;36154;51.674;7.824;2023-04-01T08:24:27;98722.97;;;20.25;51.11
48872;BME280;36154;51.674;7.824;2023-04-01T08:26:57;98724.63;;;20.26;50.87
48872;BME280;36154;51.674;7.824;2023-04-01T08:29:50;98728.13;;;20.25;51.00
48872;BME280;36154;51.674;7.824;2023-04-01T08:32:38;98727.31;;;20.24;50.95
48872;BME280;36154;51.674;7.824;2023-04-01T08:37:35;98737.66;;;20.24;50.91
48872;BME280;36154;51.674;7.824;2023-04-01T08:40:31;98733.31;;;20.25;51.00
48872;BME280;36154;51.674;7.824;2023-04-01T08:44:02;98735.06;;;20.24;50.89
48872;BME280;36154;51.674;7.824;2023-04-01T08:46:27;98742.81;;;20.24;50.99
48872;BME280;36154;51.674;7.824;2023-04-01T08:57:28;98749.75;;;20.24;50.87
48872;BME280;36154;51.674;7.824;2023-04-01T09:05:37;98755.03;;;20.22;50.90
48872;BME280;36154;51.674;7.824;2023-04-01T09:10:58;98757.50;;;20.24;50.89
48872;BME280;36154;51.674;7.824;2023-04-01T09:19:36;98758.50;;;20.21;50.94
48872;BME280;36154;51.674;7.824;2023-04-01T09:22:19;98761.88;;;20.23;50.92
48872;BME280;36154;51.674;7.824;2023-04-01T09:24:56;98767.03;;;20.23;50.93
48872;BME280;36154;51.674;7.824;2023-04-01T09:27:43;98765.34;;;20.22;51.00
48872;BME280;36154;51.674;7.824;2023-04-01T09:33:08;98769.63;;;20.23;51.01
48872;BME280;36154;51.674;7.824;2023-04-01T09:35:46;98771.28;;;20.24;50.93
48872;BME280;36154;51.674;7.824;2023-04-01T09:38:20;98773.84;;;20.24;50.95
48872;BME280;36154;51.674;7.824;2023-04-01T09:46:37;98786.69;;;20.26;50.82
48872;BME280;36154;51.674;7.824;2023-04-01T10:03:05;98796.22;;;20.25;50.87
48872;BME280;36154;51.674;7.824;2023-04-01T10:06:05;98801.38;;;20.25;50.91
48872;BME280;36154;51.674;7.824;2023-04-01T10:14:16;98810.06;;;20.24;50.84
48872;BME280;36154;51.674;7.824;2023-04-01T10:19:51;98810.88;;;20.25;50.94
48872;BME280;36154;51.674;7.824;2023-04-01T10:22:35;98811.81;;;20.24;50.79
48872;BME280;36154;51.674;7.824;2023-04-01T10:33:36;98820.41;;;20.24;50.84
48872;BME280;36154;51.674;7.824;2023-04-01T10:38:51;98822.16;;;20.24;50.81
48872;BME280;36154;51.674;7.824;2023-04-01T10:55:53;98830.75;;;20.24;50.79
48872;BME280;36154;51.674;7.824;2023-04-01T10:58:37;98836.66;;;20.26;50.83
48872;BME280;36154;51.674;7.824;2023-04-01T11:01:27;98832.41;;;20.25;50.90
48872;BME280;36154;51.674;7.824;2023-04-01T11:15:26;98841.00;;;20.26;50.85
48872;BME280;36154;51.674;7.824;2023-04-01T11:23:44;98852.94;;;20.28;50.85
48872;BME280;36154;51.674;7.824;2023-04-01T11:27:07;98851.19;;;20.29;51.08
48872;BME280;36154;51.674;7.824;2023-04-01T11:29:25;98857.25;;;20.28;51.03
48872;BME280;36154;51.674;7.824;2023-04-01T11:32:20;98863.28;;;20.28;50.94
48872;BME280;36154;51.674;7.824;2023-04-01T11:34:57;98865.88;;;20.28;50.89
48872;BME280;36154;51.674;7.824;2023-04-01T11:37:39;98867.44;;;20.31;51.02
48872;BME280;36154;51.674;7.824;2023-04-01T11:43:32;98864.69;;;20.34;51.24
48872;BME280;36154;51.674;7.824;2023-04-01T11:46:11;98867.34;;;20.33;51.40
48872;BME280;36154;51.674;7.824;2023-04-01T11:49:50;98875.69;;;20.38;51.47
48872;BME280;36154;51.674;7.824;2023-04-01T11:54:43;98878.19;;;20.39;52.02
48872;BME280;36154;51.674;7.824;2023-04-01T12:00:05;98896.19;;;20.41;52.95
48872;BME280;36154;51.674;7.824;2023-04-01T12:07:50;98905.63;;;20.42;52.87
48872;BME280;36154;51.674;7.824;2023-04-01T12:10:20;98904.69;;;20.43;52.41
48872;BME280;36154;51.674;7.824;2023-04-01T12:15:36;98909.78;;;20.44;51.93
48872;BME280;36154;51.674;7.824;2023-04-01T12:18:20;98895.09;;;20.45;51.66
48872;BME280;36154;51.674;7.824;2023-04-01T12:20:50;98914.97;;;20.44;51.45
48872;BME280;36154;51.674;7.824;2023-04-01T12:55:34;98948.69;;;20.43;50.30
48872;BME280;36154;51.674;7.824;2023-04-01T13:01:10;98946.16;;;20.41;50.29
48872;BME280;36154;51.674;7.824;2023-04-01T13:09:34;98953.19;;;20.39;50.02
48872;BME280;36154;51.674;7.824;2023-04-01T13:12:18;98950.69;;;20.38;50.13
48872;BME280;36154;51.674;7.824;2023-04-01T13:20:23;98972.31;;;20.37;49.89
48872;BME280;36154;51.674;7.824;2023-04-01T13:23:31;98969.72;;;20.37;49.69
48872;BME280;36154;51.674;7.824;2023-04-01T13:26:18;98968.03;;;20.36;49.67
48872;BME280;36154;51.674;7.824;2023-04-01T13:29:04;98966.38;;;20.35;49.67
48872;BME280;36154;51.674;7.824;2023-04-01T13:32:01;98975.06;;;20.34;49.64
48872;BME280;36154;51.674;7.824;2023-04-01T13:34:39;98980.22;;;20.34;49.55
48872;BME280;36154;51.674;7.824;2023-04-01T13:42:27;98985.47;;;20.32;49.49
48872;BME280;36154;51.674;7.824;2023-04-01T13:45:02;98981.22;;;20.31;49.47
48872;BME280;36154;51.674;7.824;2023-04-01T13:47:50;98996.72;;;20.31;49.50
48872;BME280;36154;51.674;7.824;2023-04-01T13:50:31;99001.09;;;20.30;49.54
48872;BME280;36154;51.674;7.824;2023-04-01T13:53:43;98995.09;;;20.30;49.48
48872;BME280;36154;51.674;7.824;2023-04-01T13:56:15;98989.06;;;20.29;49.43
48872;BME280;36154;51.674;7.824;2023-04-01T13:59:07;98997.75;;;20.28;49.60
48872;BME280;36154;51.674;7.824;2023-04-01T14:02:04;98997.75;;;20.28;49.87
48872;BME280;36154;51.674;7.824;2023-04-01T14:05:07;99008.09;;;20.28;49.93
48872;BME280;36154;51.674;7.824;2023-04-01T14:10:40;99014.91;;;20.29;50.19
48872;BME280;36154;51.674;7.824;2023-04-01T14:13:17;99011.44;;;20.30;50.35
48872;BME280;36154;51.674;7.824;2023-04-01T14:19:11;99017.41;;;20.31;50.58
48872;BME280;36154;51.674;7.824;2023-04-01T14:32:28;99023.41;;;20.31;50.76
48872;BME280;36154;51.674;7.824;2023-04-01T14:40:24;99037.22;;;20.32;50.79
48872;BME280;36154;51.674;7.824;2023-04-01T14:45:49;99041.44;;;20.33;50.85
48872;BME280;36154;51.674;7.824;2023-04-01T14:48:35;99046.63;;;20.33;50.92
48872;BME280;36154;51.674;7.824;2023-04-01T14:54:13;99052.66;;;20.34;50.92
48872;BME280;36154;51.674;7.824;2023-04-01T14:56:43;99052.66;;;20.34;50.56
48872;BME280;36154;51.674;7.824;2023-04-01T14:59:14;99056.88;;;20.35;50.81
48872;BME280;36154;51.674;7.824;2023-04-01T15:01:46;99053.56;;;20.33;50.75
48872;BME280;36154;51.674;7.824;2023-04-01T15:12:46;99073.66;;;20.27;51.13
48872;BME280;36154;51.674;7.824;2023-04-01T15:15:34;99078.00;;;20.27;51.13
48872;BME280;36154;51.674;7.824;2023-04-01T15:18:08;99078.91;;;20.26;51.10
48872;BME280;36154;51.674;7.824;2023-04-01T15:20:56;99078.97;;;20.24;51.15
48872;BME280;36154;51.674;7.824;2023-04-01T15:31:23;99085.25;;;20.20;51.17
48872;BME280;36154;51.674;7.824;2023-04-01T15:34:30;99094.66;;;20.21;51.22
48872;BME280;36154;51.674;7.824;2023-04-01T15:39:54;99110.94;;;20.23;51.23
48872;BME280;36154;51.674;7.824;2023-04-01T15:42:40;99106.53;;;20.25;51.46
48872;BME280;36154;51.674;7.824;2023-04-01T15:50:24;99110.69;;;20.28;51.79
48872;BME280;36154;51.674;7.824;2023-04-01T15:56:12;99115.84;;;20.28;51.79
48872;BME280;36154;51.674;7.824;2023-04-01T16:06:51;99142.56;;;20.28;51.57
48872;BME280;36154;51.674;7.824;2023-04-01T16:12:19;99145.16;;;20.28;51.61
48872;BME280;36154;51.674;7.824;2023-04-01T16:20:43;99161.50;;;20.29;51.35
48872;BME280;36154;51.674;7.824;2023-04-01T16:23:20;99158.91;;;20.29;51.36
48872;BME280;36154;51.674;7.824;2023-04-01T16:28:55;99160.59;;;20.30;51.28
48872;BME280;36154;51.674;7.824;2023-04-01T16:31:32;99164.91;;;20.29;51.32
48872;BME280;36154;51.674;7.824;2023-04-01T16:34:10;99169.19;;;20.30;51.18
48872;BME280;36154;51.674;7.824;2023-04-01T16:36:50;99170.09;;;20.29;51.32
48872;BME280;36154;51.674;7.824;2023-04-01T16:42:06;99176.88;;;20.32;51.26
48872;BME280;36154;51.674;7.824;2023-04-01T16:45:06;99175.09;;;20.33;51.28
48872;BME280;36154;51.674;7.824;2023-04-01T16:47:46;99183.78;;;20.31;51.14
48872;BME280;36154;51.674;7.824;2023-04-01T16:50:25;99186.34;;;20.31;51.18
48872;BME280;36154;51.674;7.824;2023-04-01T16:53:00;99190.78;;;20.29;51.29
48872;BME280;36154;51.674;7.824;2023-04-01T16:55:50;99204.56;;;20.30;51.45
48872;BME280;36154;51.674;7.824;2023-04-01T16:58:34;99195.94;;;20.29;51.58
48872;BME280;36154;51.674;7.824;2023-04-01T17:01:07;99201.13;;;20.29;51.52
48872;BME280;36154;51.674;7.824;2023-04-01T17:04:07;99220.09;;;20.30;51.50
48872;BME280;36154;51.674;7.824;2023-04-01T17:06:32;99216.63;;;20.29;51.51
48872;BME280;36154;51.674;7.824;2023-04-01T17:11:52;99224.41;;;20.29;51.45
48872;BME280;36154;51.674;7.824;2023-04-01T17:23:02;99229.72;;;20.26;51.45
48872;BME280;36154;51.674;7.824;2023-04-01T17:25:54;99241.75;;;20.27;51.39
48872;BME280;36154;51.674;7.824;2023-04-01T17:31:46;99247.81;;;20.26;51.54
48872;BME280;36154;51.674;7.824;2023-04-01T17:40:08;99262.50;;;20.26;51.38
48872;BME280;36154;51.674;7.824;2023-04-01T17:42:41;99275.38;;;20.27;51.38
48872;BME280;36154;51.674;7.824;2023-04-01T17:45:26;99274.53;;;20.27;51.47
48872;BME280;36154;51.674;7.824;2023-04-01T17:48:18;99279.72;;;20.27;51.32
48872;BME280;36154;51.674;7.824;2023-04-01T17:51:05;99282.22;;;20.28;51.52
48872;BME280;36154;51.674;7.824;2023-04-01T17:53:43;99287.41;;;20.28;51.44
48872;BME280;36154;51.674;7.824;2023-04-01T18:07:25;99309.47;;;20.36;51.64
48872;BME280;36154;51.674;7.824;2023-04-01T18:10:25;99311.13;;;20.37;51.61
48872;BME280;36154;51.674;7.824;2023-04-01T18:16:12;99330.00;;;20.39;51.73
48872;BME280;36154;51.674;7.824;2023-04-01T18:18:50;99326.66;;;20.37;51.45
48872;BME280;36154;51.674;7.824;2023-04-01T18:26:39;99349.94;;;20.37;51.53
48872;BME280;36154;51.674;7.824;2023-04-01T18:31:46;99365.47;;;20.37;51.56
48872;BME280;36154;51.674;7.824;2023-04-01T18:34:43;99369.69;;;20.38;51.80
48872;BME280;36154;51.674;7.824;2023-04-01T18:37:28;99370.53;;;20.38;51.57
48872;BME280;36154;51.674;7.824;2023-04-01T18:40:02;99373.22;;;20.37;51.47
48872;BME280;36154;51.674;7.824;2023-04-01T18:42:52;99381.81;;;20.37;51.53
48872;BME280;36154;51.674;7.824;2023-04-01T18:45:29;99385.22;;;20.38;51.62
48872;BME280;36154;51.674;7.824;2023-04-01T18:48:08;99391.31;;;20.37;51.61
48872;BME280;36154;51.674;7.824;2023-04-01T18:50:42;99399.91;;;20.37;51.66
48872;BME280;36154;51.674;7.824;2023-04-01T18:53:35;99401.66;;;20.37;51.56
48872;BME280;36154;51.674;7.824;2023-04-01T18:58:35;99419.00;;;20.35;51.64
48872;BME280;36154;51.674;7.824;2023-04-01T19:01:40;99425.91;;;20.34;51.58
48872;BME280;36154;51.674;7.824;2023-04-01T19:04:19;99421.56;;;20.35;51.57
48872;BME280;36154;51.674;7.824;2023-04-01T19:06:51;99425.91;;;20.34;51.80
48872;BME280;36154;51.674;7.824;2023-04-01T19:09:27;99432.72;;;20.37;51.55
48872;BME280;36154;51.674;7.824;2023-04-01T19:17:53;99449.97;;;20.36;51.62
48872;BME280;36154;51.674;7.824;2023-04-01T19:20:35;99456.81;;;20.37;51.59
48872;BME280;36154;51.674;7.824;2023-04-01T19:25:55;99463.75;;;20.37;51.82
48872;BME280;36154;51.674;7.824;2023-04-01T19:28:35;99469.81;;;20.36;51.58
48872;BME280;36154;51.674;7.824;2023-04-01T19:36:39;99494.94;;;20.34;51.75
48872;BME280;36154;51.674;7.824;2023-04-01T19:53:16;99526.94;;;20.31;51.68
48872;BME280;36154;51.674;7.824;2023-04-01T19:56:02;99545.88;;;20.31;51.57
48872;BME280;36154;51.674;7.824;2023-04-01T19:58:37;99546.72;;;20.32;51.61
48872;BME280;36154;51.674;7.824;2023-04-01T20:01:09;99545.88;;;20.31;51.55
48872;BME280;36154;51.674;7.824;2023-04-01T20:09:06;99569.25;;;20.30;51.55
48872;BME280;36154;51.674;7.824;2023-04-01T20:11:45;99580.41;;;20.30;51.41